Aniara — SKJC — position and weather

sailwx.info

Track history (hours):
 
Tides and Currents Weather Stations Pressure Air Temp Water Temp Dewpoint Dewpoint Depression Visibility Wind Speed Wind Dir Waves Ship Positions

Aniara

Last reported at 2015-Feb-27 06:31 UTC. Time now 2015-Feb-27 07:33 UTC.
Position N 51°19' E 003°14'.

Length 232 m; draft 8.6 m.

Type: Cargo ship. MMSI: 266282000.

Date/timePositionNaut miles runAvg speedWind from/ knotsBaromVisibWave heightAir tempDewpointWater temp
2015-Feb-27 06:31N 51°19' E 003°14'0 0.0
2015-Feb-27 05:31N 51°19' E 003°14'0 0.0
2015-Feb-27 04:28N 51°19' E 003°14'0 0.0
2015-Feb-27 03:31N 51°19' E 003°14'0 0.0
2015-Feb-27 02:31N 51°19' E 003°14'0 0.0
2015-Feb-27 01:31N 51°19' E 003°14'0 0.0
2015-Feb-27 00:31N 51°19' E 003°14'0 0.0
2015-Feb-26 23:31N 51°19' E 003°14'0 0.0
2015-Feb-26 22:25N 51°19' E 003°14'0 0.0
2015-Feb-26 21:25N 51°19' E 003°14'0 0.0
2015-Feb-26 20:28N 51°19' E 003°14'0 0.0
2015-Feb-26 19:31N 51°19' E 003°14'0 0.0
2015-Feb-26 18:31N 51°19' E 003°14'0 0.0
2015-Feb-26 17:25N 51°19' E 003°14'0 0.0
2015-Feb-26 16:31N 51°19' E 003°14'0 0.0
2015-Feb-26 15:33N 51°19' E 003°14'1 1.3
2015-Feb-26 14:33N 51°20' E 003°13'4 4.3
2015-Feb-26 13:33N 51°23' E 003°09'1716.4
2015-Feb-26 12:33N 51°26' E 002°43'14816.4
2015-Feb-26 03:33N 53°31' E 004°50'1818.1
2015-Feb-26 02:33N 53°37' E 005°19'1717.4
2015-Feb-26 01:33N 53°43' E 005°46'1717.2
2015-Feb-26 00:33N 53°48' E 006°14'2920.7
2015-Feb-25 23:10N 53°55' E 007°01'6 9.2
2015-Feb-25 22:33N 53°57' E 007°11'1817.8
2015-Feb-25 21:33N 53°59' E 007°41'1514.5
2015-Feb-25 20:33N 53°51' E 008°02'1818.5
2015-Feb-25 19:33N 53°39' E 008°25'7 6.6
2015-Feb-25 18:33N 53°34' E 008°33'0 0.5
2015-Feb-25 17:33N 53°35' E 008°33'0 0.0
2015-Feb-25 16:33N 53°35' E 008°33'0 0.0
2015-Feb-25 15:33N 53°35' E 008°33'0 0.0
2015-Feb-25 14:33N 53°35' E 008°33'0 0.0
2015-Feb-25 13:33N 53°35' E 008°33'0 0.0
2015-Feb-25 12:33N 53°35' E 008°33'0 0.0
2015-Feb-25 11:33N 53°35' E 008°33'0 0.0
2015-Feb-25 10:33N 53°35' E 008°33'0 0.0
2015-Feb-25 09:33N 53°35' E 008°33'0 0.0
2015-Feb-25 08:33N 53°35' E 008°33'0 0.0
2015-Feb-25 07:33N 53°35' E 008°33'0 0.0
2015-Feb-25 06:33N 53°35' E 008°33'0 0.0
2015-Feb-25 05:33N 53°35' E 008°33'0 0.0
2015-Feb-25 04:33N 53°35' E 008°33'0 0.0
2015-Feb-25 03:33N 53°35' E 008°33'0 0.0
2015-Feb-25 02:33N 53°35' E 008°33'0 0.0
2015-Feb-25 01:33N 53°35' E 008°33'0 0.0
2015-Feb-25 00:33N 53°35' E 008°33'0 0.0
2015-Feb-24 23:33N 53°35' E 008°33'0 0.0
2015-Feb-24 22:33N 53°35' E 008°33'0 0.0
2015-Feb-24 21:33N 53°35' E 008°33'0 0.0
2015-Feb-24 20:33N 53°35' E 008°33'0 0.0
2015-Feb-24 19:33N 53°35' E 008°33'0 0.0
2015-Feb-24 18:33N 53°35' E 008°33'0 0.0
2015-Feb-24 17:33N 53°35' E 008°33'0 0.0
2015-Feb-24 16:33N 53°35' E 008°33'0 0.0
2015-Feb-24 15:33N 53°35' E 008°33'0 0.0
2015-Feb-24 14:33N 53°35' E 008°33'0 0.0
2015-Feb-24 13:33N 53°35' E 008°33'0 0.0
2015-Feb-24 12:33N 53°35' E 008°33'0 0.0
2015-Feb-24 11:33N 53°35' E 008°33'0 0.0
2015-Feb-24 10:30N 53°35' E 008°33'0 0.0
2015-Feb-24 09:33N 53°35' E 008°33'0 0.0
2015-Feb-24 08:33N 53°35' E 008°33'0 0.0
2015-Feb-24 07:33N 53°35' E 008°33'0 0.0
2015-Feb-24 06:33N 53°35' E 008°33'0 0.0
2015-Feb-24 05:33N 53°35' E 008°33'0 0.0
2015-Feb-24 04:33N 53°35' E 008°33'0 0.2
2015-Feb-24 03:33N 53°34' E 008°33'0 0.5
2015-Feb-24 02:33N 53°34' E 008°32'1313.2
2015-Feb-24 01:33N 53°43' E 008°16'1413.8
2015-Feb-24 00:33N 53°51' E 007°58'10 9.8
2015-Feb-23 23:33N 53°53' E 007°41'9 9.0
2015-Feb-23 22:31N 53°54' E 007°25'10 9.5
2015-Feb-23 21:26N 53°51' E 007°08'19 9.6
2015-Feb-23 19:25N 53°47' E 006°37'8 9.2
2015-Feb-23 18:33N 53°44' E 006°24'9 9.2
2015-Feb-23 17:33N 53°41' E 006°09'9 9.2
2015-Feb-23 16:33N 53°39' E 005°54'9 9.1
2015-Feb-23 15:33N 53°36' E 005°40'7 7.1
2015-Feb-23 14:33N 53°34' E 005°28'7 7.4
2015-Feb-23 13:33N 53°31' E 005°16'8 8.0
2015-Feb-23 12:33N 53°29' E 005°04'8 8.5
2015-Feb-23 11:34N 53°26' E 004°50'8 8.0
2015-Feb-23 10:33N 53°21' E 004°40'8 7.8
2015-Feb-23 09:33N 53°14' E 004°35'8 8.3
2015-Feb-23 08:33N 53°07' E 004°27'1010.4
2015-Feb-23 07:33N 52°58' E 004°19'1615.7
2015-Feb-23 06:32N 52°44' E 004°05'1616.1
2015-Feb-23 05:33N 52°32' E 003°47'1616.0
2015-Feb-23 04:33N 52°19' E 003°33'1615.6
2015-Feb-23 03:32N 52°04' E 003°25'1313.5
2015-Feb-23 02:33N 51°53' E 003°13'2813.8
2015-Feb-23 00:33N 51°41' E 002°32'1313.1
2015-Feb-22 23:34N 51°31' E 002°18'1312.6
2015-Feb-22 22:33N 51°20' E 002°09'1211.8
2015-Feb-22 21:34N 51°11' E 001°58'1212.5
2015-Feb-22 20:34N 51°03' E 001°42'1313.2
2015-Feb-22 19:33N 50°53' E 001°29'  
2015-Feb-19 03:26N 38°48' W 025°07'1416.3
2015-Feb-19 02:33N 38°40' W 025°22'1716.6
2015-Feb-19 01:34N 38°30' W 025°39'1716.7
2015-Feb-19 00:33N 38°20' W 025°56'1616.5
2015-Feb-18 23:33N 38°10' W 026°13'1616.5
2015-Feb-18 22:34N 38°01' W 026°31'1616.4
2015-Feb-18 21:33N 37°55' W 026°50'1616.2
2015-Feb-18 20:33N 37°49' W 027°09'1616.2
2015-Feb-18 19:33N 37°42' W 027°28'1616.2
2015-Feb-18 18:32N 37°36' W 027°47'1616.3
2015-Feb-18 17:33N 37°30' W 028°06'1716.4
2015-Feb-18 16:31N 37°24' W 028°26'1616.3
2015-Feb-18 15:33N 37°18' W 028°44'1616.3
2015-Feb-18 14:33N 37°11' W 029°03'1616.3
2015-Feb-18 13:33N 37°05' W 029°22'1615.8
2015-Feb-18 12:33N 36°59' W 029°40'1615.9
2015-Feb-18 11:33N 36°53' W 029°58'  
Track history (hours):
 
Tides and Currents Weather Stations Pressure Air Temp Water Temp Dewpoint Dewpoint Depression Visibility Wind Speed Wind Dir Waves Ship Positions

Aniara

Last reported at 2015-Feb-27 06:31 UTC. Time now 2015-Feb-27 07:33 UTC.
Position N 51°19' E 003°14'.

Length 232 m; draft 8.6 m.

Type: Cargo ship. MMSI: 266282000.

Date/timePositionNaut miles runAvg speedWind from/ knotsBaromVisibWave heightAir tempDewpointWater temp
2015-Feb-27 06:31N 51°19' E 003°14'0 0.0
2015-Feb-27 05:31N 51°19' E 003°14'0 0.0
2015-Feb-27 04:28N 51°19' E 003°14'0 0.0
2015-Feb-27 03:31N 51°19' E 003°14'0 0.0
2015-Feb-27 02:31N 51°19' E 003°14'0 0.0
2015-Feb-27 01:31N 51°19' E 003°14'0 0.0
2015-Feb-27 00:31N 51°19' E 003°14'0 0.0
2015-Feb-26 23:31N 51°19' E 003°14'0 0.0
2015-Feb-26 22:25N 51°19' E 003°14'0 0.0
2015-Feb-26 21:25N 51°19' E 003°14'0 0.0
2015-Feb-26 20:28N 51°19' E 003°14'0 0.0
2015-Feb-26 19:31N 51°19' E 003°14'0 0.0
2015-Feb-26 18:31N 51°19' E 003°14'0 0.0
2015-Feb-26 17:25N 51°19' E 003°14'0 0.0
2015-Feb-26 16:31N 51°19' E 003°14'0 0.0
2015-Feb-26 15:33N 51°19' E 003°14'1 1.3
2015-Feb-26 14:33N 51°20' E 003°13'4 4.3
2015-Feb-26 13:33N 51°23' E 003°09'1716.4
2015-Feb-26 12:33N 51°26' E 002°43'14816.4
2015-Feb-26 03:33N 53°31' E 004°50'1818.1
2015-Feb-26 02:33N 53°37' E 005°19'1717.4
2015-Feb-26 01:33N 53°43' E 005°46'1717.2
2015-Feb-26 00:33N 53°48' E 006°14'2920.7
2015-Feb-25 23:10N 53°55' E 007°01'6 9.2
2015-Feb-25 22:33N 53°57' E 007°11'1817.8
2015-Feb-25 21:33N 53°59' E 007°41'1514.5
2015-Feb-25 20:33N 53°51' E 008°02'1818.5
2015-Feb-25 19:33N 53°39' E 008°25'7 6.6
2015-Feb-25 18:33N 53°34' E 008°33'0 0.5
2015-Feb-25 17:33N 53°35' E 008°33'0 0.0
2015-Feb-25 16:33N 53°35' E 008°33'0 0.0
2015-Feb-25 15:33N 53°35' E 008°33'0 0.0
2015-Feb-25 14:33N 53°35' E 008°33'0 0.0
2015-Feb-25 13:33N 53°35' E 008°33'0 0.0
2015-Feb-25 12:33N 53°35' E 008°33'0 0.0
2015-Feb-25 11:33N 53°35' E 008°33'0 0.0
2015-Feb-25 10:33N 53°35' E 008°33'0 0.0
2015-Feb-25 09:33N 53°35' E 008°33'0 0.0
2015-Feb-25 08:33N 53°35' E 008°33'0 0.0
2015-Feb-25 07:33N 53°35' E 008°33'0 0.0
2015-Feb-25 06:33N 53°35' E 008°33'0 0.0
2015-Feb-25 05:33N 53°35' E 008°33'0 0.0
2015-Feb-25 04:33N 53°35' E 008°33'0 0.0
2015-Feb-25 03:33N 53°35' E 008°33'0 0.0
2015-Feb-25 02:33N 53°35' E 008°33'0 0.0
2015-Feb-25 01:33N 53°35' E 008°33'0 0.0
2015-Feb-25 00:33N 53°35' E 008°33'0 0.0
2015-Feb-24 23:33N 53°35' E 008°33'0 0.0
2015-Feb-24 22:33N 53°35' E 008°33'0 0.0
2015-Feb-24 21:33N 53°35' E 008°33'0 0.0
2015-Feb-24 20:33N 53°35' E 008°33'0 0.0
2015-Feb-24 19:33N 53°35' E 008°33'0 0.0
2015-Feb-24 18:33N 53°35' E 008°33'0 0.0
2015-Feb-24 17:33N 53°35' E 008°33'0 0.0
2015-Feb-24 16:33N 53°35' E 008°33'0 0.0
2015-Feb-24 15:33N 53°35' E 008°33'0 0.0
2015-Feb-24 14:33N 53°35' E 008°33'0 0.0
2015-Feb-24 13:33N 53°35' E 008°33'0 0.0
2015-Feb-24 12:33N 53°35' E 008°33'0 0.0
2015-Feb-24 11:33N 53°35' E 008°33'0 0.0
2015-Feb-24 10:30N 53°35' E 008°33'0 0.0
2015-Feb-24 09:33N 53°35' E 008°33'0 0.0
2015-Feb-24 08:33N 53°35' E 008°33'0 0.0
2015-Feb-24 07:33N 53°35' E 008°33'0 0.0
2015-Feb-24 06:33N 53°35' E 008°33'0 0.0
2015-Feb-24 05:33N 53°35' E 008°33'0 0.0
2015-Feb-24 04:33N 53°35' E 008°33'0 0.2
2015-Feb-24 03:33N 53°34' E 008°33'0 0.5
2015-Feb-24 02:33N 53°34' E 008°32'1313.2
2015-Feb-24 01:33N 53°43' E 008°16'1413.8
2015-Feb-24 00:33N 53°51' E 007°58'10 9.8
2015-Feb-23 23:33N 53°53' E 007°41'9 9.0
2015-Feb-23 22:31N 53°54' E 007°25'10 9.5
2015-Feb-23 21:26N 53°51' E 007°08'19 9.6
2015-Feb-23 19:25N 53°47' E 006°37'8 9.2
2015-Feb-23 18:33N 53°44' E 006°24'9 9.2
2015-Feb-23 17:33N 53°41' E 006°09'9 9.2
2015-Feb-23 16:33N 53°39' E 005°54'9 9.1
2015-Feb-23 15:33N 53°36' E 005°40'7 7.1
2015-Feb-23 14:33N 53°34' E 005°28'7 7.4
2015-Feb-23 13:33N 53°31' E 005°16'8 8.0
2015-Feb-23 12:33N 53°29' E 005°04'8 8.5
2015-Feb-23 11:34N 53°26' E 004°50'8 8.0
2015-Feb-23 10:33N 53°21' E 004°40'8 7.8
2015-Feb-23 09:33N 53°14' E 004°35'8 8.3
2015-Feb-23 08:33N 53°07' E 004°27'1010.4
2015-Feb-23 07:33N 52°58' E 004°19'1615.7
2015-Feb-23 06:32N 52°44' E 004°05'1616.1
2015-Feb-23 05:33N 52°32' E 003°47'1616.0
2015-Feb-23 04:33N 52°19' E 003°33'1615.6
2015-Feb-23 03:32N 52°04' E 003°25'1313.5
2015-Feb-23 02:33N 51°53' E 003°13'2813.8
2015-Feb-23 00:33N 51°41' E 002°32'1313.1
2015-Feb-22 23:34N 51°31' E 002°18'1312.6
2015-Feb-22 22:33N 51°20' E 002°09'1211.8
2015-Feb-22 21:34N 51°11' E 001°58'1212.5
2015-Feb-22 20:34N 51°03' E 001°42'1313.2
2015-Feb-22 19:33N 50°53' E 001°29'  
2015-Feb-19 03:26N 38°48' W 025°07'1416.3
2015-Feb-19 02:33N 38°40' W 025°22'1716.6
2015-Feb-19 01:34N 38°30' W 025°39'1716.7
2015-Feb-19 00:33N 38°20' W 025°56'1616.5
2015-Feb-18 23:33N 38°10' W 026°13'1616.5
2015-Feb-18 22:34N 38°01' W 026°31'1616.4
2015-Feb-18 21:33N 37°55' W 026°50'1616.2
2015-Feb-18 20:33N 37°49' W 027°09'1616.2
2015-Feb-18 19:33N 37°42' W 027°28'1616.2
2015-Feb-18 18:32N 37°36' W 027°47'1616.3
2015-Feb-18 17:33N 37°30' W 028°06'1716.4
2015-Feb-18 16:31N 37°24' W 028°26'1616.3
2015-Feb-18 15:33N 37°18' W 028°44'1616.3
2015-Feb-18 14:33N 37°11' W 029°03'1616.3
2015-Feb-18 13:33N 37°05' W 029°22'1615.8
2015-Feb-18 12:33N 36°59' W 029°40'1615.9
2015-Feb-18 11:33N 36°53' W 029°58'  

Dump ship's entire track history